Terminal Aerodrome Forecast
Issued by NWS

Home | Current Version | Previous Version | Text Only | Print | Product List | Glossary On
Versions: 1 2 3 4 5 6 7 8 9 10 11 12
000
FTUS43 KPAH 290520
TAFCGI
TAF
KCGI 290520Z 2906/3006 00000KT P6SM FEW250
      TEMPO 2909/2913 00000KT 5SM BR
     FM291500 30006KT P6SM FEW035
     FM300000 36006KT P6SM SCT050=

USA.gov is the U.S. government's official web portal to all federal, state and local government web resources and services.